createdAt,value
2019-04-30T17:30:12.025Z,99762.48
2019-04-30T17:32:41.443Z,99761.15
2019-04-30T17:35:11.770Z,99764.34
2019-04-30T17:37:41.830Z,99765.26
2019-04-30T17:40:13.952Z,99765.26
2019-04-30T17:42:45.527Z,99766.27
2019-04-30T17:45:16.072Z,99767.47
2019-04-30T17:47:45.477Z,99763.64
2019-04-30T17:50:14.953Z,99767.27
2019-04-30T17:52:44.743Z,99763.31
2019-04-30T17:55:14.302Z,99758.17
2019-04-30T17:57:48.658Z,99758.17
2019-04-30T18:00:22.032Z,99764.61
2019-04-30T18:02:48.268Z,99769.33
2019-04-30T18:05:19.658Z,99764.62
2019-04-30T18:07:49.921Z,99764.62
2019-04-30T18:10:19.959Z,99759.09
2019-04-30T18:12:49.619Z,99759.73
2019-04-30T18:15:21.743Z,99760.30
2019-04-30T18:17:58.349Z,99760.30
2019-04-30T18:20:36.767Z,99766.73
2019-04-30T18:23:26.137Z,99766.73
2019-04-30T18:26:00.740Z,99773.08
2019-04-30T18:28:31.222Z,99773.08
2019-04-30T18:31:04.154Z,99767.91
2019-04-30T18:33:34.460Z,99767.13
2019-04-30T18:36:04.189Z,99767.13
2019-04-30T18:38:34.907Z,99771.55
2019-04-30T18:41:05.151Z,99771.85
2019-04-30T18:43:37.908Z,99771.85
2019-04-30T18:46:06.557Z,99773.02
2019-04-30T18:48:36.857Z,99774.90
2019-04-30T18:51:23.737Z,99771.67
2019-04-30T18:53:39.736Z,99770.14
2019-04-30T18:56:14.452Z,99776.48
2019-04-30T18:58:43.159Z,99748.41
2019-04-30T19:01:13.127Z,99748.41
2019-04-30T19:03:42.795Z,99770.85
2019-04-30T19:06:23.690Z,99769.55
2019-04-30T19:09:07.175Z,99769.05
2019-04-30T19:11:44.694Z,99764.97
2019-04-30T19:14:29.504Z,99770.52
2019-04-30T19:17:10.895Z,99767.90
2019-04-30T19:20:10.670Z,99768.01
2019-04-30T19:22:40.754Z,99764.15
2019-04-30T19:25:10.537Z,99764.15
2019-04-30T19:27:40.099Z,99767.93
2019-04-30T19:30:10.170Z,99766.47
2019-04-30T19:32:39.898Z,99761.22
2019-04-30T19:35:10.385Z,99761.22
2019-04-30T19:37:40.401Z,99759.90
2019-04-30T19:40:10.299Z,99769.08
2019-04-30T19:42:39.939Z,99760.60
2019-04-30T19:45:12.372Z,99757.84
2019-04-30T19:47:41.133Z,99764.39
2019-04-30T19:50:10.653Z,99764.39
2019-04-30T19:52:40.445Z,99761.14
2019-04-30T19:55:10.346Z,99759.07
2019-04-30T19:57:39.973Z,99762.77
2019-04-30T20:00:10.305Z,99761.16
2019-04-30T20:02:39.860Z,99764.86
2019-04-30T20:05:09.694Z,99761.15
2019-04-30T20:07:40.677Z,99761.15
2019-04-30T20:10:10.426Z,99759.98
2019-04-30T20:12:40.396Z,99757.37
2019-04-30T20:15:17.287Z,99757.37
2019-04-30T20:17:41.174Z,99759.39
2019-04-30T20:20:13.093Z,99758.08
2019-04-30T20:22:43.006Z,99757.20
2019-04-30T20:25:13.156Z,99755.27
2019-04-30T20:27:42.529Z,99755.27
2019-04-30T20:30:12.938Z,99754.41
2019-04-30T20:32:42.592Z,99754.52
2019-04-30T20:35:15.201Z,99756.25
2019-04-30T20:38:14.957Z,99758.56
2019-04-30T20:41:00.080Z,99758.56
2019-04-30T20:43:28.573Z,99758.94
2019-04-30T20:46:00.768Z,99756.63
2019-04-30T20:48:32.761Z,99756.63
2019-04-30T20:51:04.836Z,99758.53
2019-04-30T20:53:35.916Z,99761.84
2019-04-30T20:56:05.170Z,99765.38
2019-04-30T20:58:35.617Z,99765.38
2019-04-30T21:01:06.844Z,99757.80
2019-04-30T21:03:37.085Z,99758.35
2019-04-30T21:06:08.838Z,99764.34
2019-04-30T21:08:38.490Z,99762.23
2019-04-30T21:11:09.373Z,99762.56
2019-04-30T21:13:40.951Z,99754.94
2019-04-30T21:16:10.608Z,99754.94
2019-04-30T21:18:40.523Z,99770.39
2019-04-30T21:21:10.211Z,99771.77
2019-04-30T21:23:40.894Z,99763.84
2019-04-30T21:26:10.726Z,99763.84
2019-04-30T21:28:40.453Z,99767.95
2019-04-30T21:31:27.432Z,99763.72
2019-04-30T21:34:03.151Z,99763.72
2019-04-30T21:36:32.682Z,99771.50
2019-04-30T21:39:02.384Z,99766.81
2019-04-30T21:41:33.431Z,99766.50
2019-04-30T21:44:04.230Z,99760.41
2019-04-30T21:46:33.767Z,99762.58
2019-04-30T21:49:03.414Z,99763.72
2019-04-30T21:51:32.635Z,99763.72
2019-04-30T21:54:05.048Z,99758.94
2019-04-30T21:56:33.431Z,99762.86
2019-04-30T21:59:02.656Z,99762.03
2019-04-30T22:01:32.161Z,99759.50
2019-04-30T22:04:01.831Z,99758.83
2019-04-30T22:06:32.015Z,99759.05
2019-04-30T22:09:01.461Z,99759.05
2019-04-30T22:11:32.370Z,99764.46
2019-04-30T22:14:01.613Z,99754.73
2019-04-30T22:16:31.391Z,99754.73
2019-04-30T22:19:00.744Z,99756.58
2019-04-30T22:21:30.465Z,99754.53
2019-04-30T22:23:59.727Z,99750.56
2019-04-30T22:26:29.126Z,99750.56
2019-04-30T22:29:02.233Z,99754.06
2019-04-30T22:31:31.734Z,99750.80
2019-04-30T22:34:01.019Z,99750.09
2019-04-30T22:36:41.606Z,99755.38
2019-04-30T22:39:30.205Z,99755.38
2019-04-30T22:42:32.553Z,99752.12
2019-04-30T22:45:02.996Z,99751.97
2019-04-30T22:47:32.531Z,99749.20
2019-04-30T22:50:02.213Z,99753.36
2019-04-30T22:52:31.476Z,99753.36
2019-04-30T22:55:00.860Z,99749.64
2019-04-30T22:57:30.365Z,99750.56
2019-04-30T23:00:01.321Z,99752.70
2019-04-30T23:02:38.738Z,99751.06
2019-04-30T23:05:10.031Z,99751.06
2019-04-30T23:07:39.430Z,99753.34
2019-04-30T23:10:09.109Z,99751.77
2019-04-30T23:12:39.055Z,99754.88
2019-04-30T23:15:08.652Z,99742.86
2019-04-30T23:17:38.179Z,99745.56
2019-04-30T23:20:08.261Z,99745.56
2019-04-30T23:22:37.658Z,99746.93
2019-04-30T23:25:07.155Z,99745.83
2019-04-30T23:27:36.429Z,99741.86
2019-04-30T23:30:06.105Z,99741.86
2019-04-30T23:32:35.838Z,99742.58
2019-04-30T23:35:05.378Z,99738.55
2019-04-30T23:37:34.944Z,99736.77
2019-04-30T23:40:26.661Z,99738.34
2019-04-30T23:42:55.923Z,99739.59
2019-04-30T23:45:25.431Z,99733.38
2019-04-30T23:47:54.764Z,99733.38
2019-04-30T23:50:24.835Z,99736.70
2019-04-30T23:52:54.186Z,99735.23
2019-04-30T23:55:23.752Z,99737.78
2019-04-30T23:57:53.364Z,99739.59
